createdAt,value
2022-07-29T00:01:54.807Z,19.20
2022-07-29T00:04:21.943Z,19.10
2022-07-29T00:06:48.912Z,19.10
2022-07-29T00:09:15.613Z,19.10
2022-07-29T00:11:42.699Z,19.00
2022-07-29T00:14:09.433Z,19.00
2022-07-29T00:16:36.344Z,19.00
2022-07-29T00:19:03.263Z,18.90
2022-07-29T00:21:30.063Z,18.90
2022-07-29T00:23:56.831Z,18.90
2022-07-29T00:26:24.289Z,18.80
2022-07-29T00:28:51.026Z,18.80
2022-07-29T00:31:17.731Z,18.80
2022-07-29T00:33:44.533Z,18.80
2022-07-29T00:36:11.241Z,18.70
2022-07-29T00:38:37.911Z,18.70
2022-07-29T00:41:04.771Z,18.70
2022-07-29T00:43:31.440Z,18.70
2022-07-29T00:45:58.150Z,18.60
2022-07-29T00:48:24.821Z,18.60
2022-07-29T00:50:51.751Z,18.50
2022-07-29T00:53:18.780Z,18.50
2022-07-29T00:55:45.470Z,18.40
2022-07-29T00:58:13.033Z,18.40
2022-07-29T01:00:41.680Z,18.40
2022-07-29T01:03:08.983Z,18.40
2022-07-29T01:05:50.395Z,18.40
2022-07-29T01:08:19.747Z,18.40
2022-07-29T01:10:46.676Z,18.30
2022-07-29T01:13:14.286Z,18.20
2022-07-29T01:15:49.157Z,18.20
2022-07-29T01:18:24.629Z,18.20
2022-07-29T01:20:54.130Z,18.20
2022-07-29T01:23:20.805Z,18.10
2022-07-29T01:26:06.052Z,18.10
2022-07-29T01:28:51.420Z,18.00
2022-07-29T01:31:26.639Z,17.90
2022-07-29T01:33:58.544Z,17.90
2022-07-29T01:36:30.947Z,17.70
2022-07-29T01:39:03.428Z,17.70
2022-07-29T01:41:32.484Z,17.60
2022-07-29T01:44:02.330Z,17.60
2022-07-29T01:46:34.326Z,17.50
2022-07-29T01:49:04.834Z,17.50
2022-07-29T01:51:34.022Z,17.50
2022-07-29T01:54:07.119Z,17.40
2022-07-29T01:56:34.759Z,17.40
2022-07-29T01:59:03.985Z,17.30
2022-07-29T02:01:32.239Z,17.20
2022-07-29T02:04:00.199Z,17.20
2022-07-29T02:06:28.217Z,17.10
2022-07-29T02:08:55.952Z,17.10
2022-07-29T02:11:22.651Z,17.10
2022-07-29T02:13:50.242Z,17.10
2022-07-29T02:16:17.506Z,17.00
2022-07-29T02:18:46.607Z,17.00
2022-07-29T02:21:15.572Z,16.90
2022-07-29T02:23:51.003Z,16.90
2022-07-29T02:26:20.047Z,16.90
2022-07-29T02:28:47.065Z,16.90
2022-07-29T02:31:14.661Z,16.90
2022-07-29T02:33:41.825Z,16.80
2022-07-29T02:36:08.810Z,16.80
2022-07-29T02:38:52.013Z,16.80
2022-07-29T02:41:21.208Z,16.80
2022-07-29T02:43:49.642Z,16.80
2022-07-29T02:46:28.504Z,16.80
2022-07-29T02:48:59.170Z,16.70
2022-07-29T02:51:43.408Z,16.70
2022-07-29T02:54:11.715Z,16.60
2022-07-29T02:56:39.201Z,16.60
2022-07-29T02:59:09.275Z,16.60
2022-07-29T03:01:36.213Z,16.50
2022-07-29T03:04:05.391Z,16.50
2022-07-29T03:06:38.279Z,16.50
2022-07-29T03:09:12.608Z,16.40
2022-07-29T03:11:48.015Z,16.40
2022-07-29T03:14:18.947Z,16.50
2022-07-29T03:16:46.139Z,16.50
2022-07-29T03:19:12.989Z,16.50
2022-07-29T03:21:39.901Z,16.50
2022-07-29T03:24:10.518Z,16.50
2022-07-29T03:26:37.907Z,16.50
2022-07-29T03:29:04.597Z,16.40
2022-07-29T03:31:32.113Z,16.40
2022-07-29T03:34:00.534Z,16.50
2022-07-29T03:36:27.279Z,16.50
2022-07-29T03:38:54.380Z,16.50
2022-07-29T03:41:23.670Z,16.50
2022-07-29T03:43:50.712Z,16.60
2022-07-29T03:46:18.426Z,16.70
2022-07-29T03:48:49.671Z,16.70
2022-07-29T03:51:16.422Z,16.70
2022-07-29T03:53:43.220Z,16.80
2022-07-29T03:56:10.981Z,16.90
2022-07-29T03:58:38.636Z,16.90
2022-07-29T04:01:05.463Z,17.00
2022-07-29T04:03:32.271Z,17.00
2022-07-29T04:05:59.731Z,17.10
2022-07-29T04:08:26.520Z,17.30
2022-07-29T04:10:53.526Z,17.40
2022-07-29T04:13:20.967Z,17.60
2022-07-29T04:15:48.161Z,17.90
2022-07-29T04:18:14.862Z,18.00
2022-07-29T04:20:41.586Z,18.10
2022-07-29T04:23:08.273Z,18.40
2022-07-29T04:25:37.872Z,18.60
2022-07-29T04:28:04.847Z,19.00
2022-07-29T04:30:32.185Z,19.40
2022-07-29T04:32:59.236Z,19.50
2022-07-29T04:35:26.165Z,19.40
2022-07-29T04:37:52.885Z,19.20
2022-07-29T04:40:19.651Z,19.00
2022-07-29T04:42:47.319Z,19.00
2022-07-29T04:45:14.795Z,18.80
2022-07-29T04:47:41.886Z,18.80
2022-07-29T04:50:09.276Z,19.00
2022-07-29T04:52:36.281Z,19.20
2022-07-29T04:55:04.134Z,19.50
2022-07-29T04:57:30.969Z,19.70
2022-07-29T04:59:57.781Z,20.00
2022-07-29T05:02:24.644Z,20.30
2022-07-29T05:04:51.511Z,20.40
2022-07-29T05:07:18.323Z,20.60
2022-07-29T05:09:45.272Z,20.80
2022-07-29T05:12:12.906Z,20.80
2022-07-29T05:14:39.693Z,21.10
2022-07-29T05:17:06.888Z,21.50
2022-07-29T05:19:33.626Z,21.90
2022-07-29T05:22:06.512Z,21.90
2022-07-29T05:24:33.210Z,22.20
2022-07-29T05:26:59.979Z,22.50
2022-07-29T05:29:42.862Z,22.80
2022-07-29T05:32:11.805Z,22.50
2022-07-29T05:34:38.476Z,22.60
2022-07-29T05:37:21.732Z,22.40
2022-07-29T05:39:56.217Z,22.50
2022-07-29T05:42:23.894Z,22.60
2022-07-29T05:44:50.570Z,23.00
2022-07-29T05:47:17.291Z,23.10
2022-07-29T05:49:44.329Z,23.40
2022-07-29T05:52:11.016Z,23.80
2022-07-29T05:54:37.723Z,24.00
2022-07-29T05:57:04.661Z,24.40
2022-07-29T05:59:31.330Z,23.70
2022-07-29T06:01:58.684Z,23.50
2022-07-29T06:04:25.819Z,23.30
2022-07-29T06:06:52.571Z,23.00
2022-07-29T06:09:19.325Z,22.90
2022-07-29T06:11:45.972Z,22.80
2022-07-29T06:14:12.670Z,22.40
2022-07-29T06:16:39.525Z,22.20
2022-07-29T06:19:06.463Z,22.30
2022-07-29T06:21:33.131Z,22.30
2022-07-29T06:24:00.020Z,22.70
2022-07-29T06:26:30.622Z,22.90
2022-07-29T06:28:58.694Z,23.50
2022-07-29T06:31:25.532Z,23.80
2022-07-29T06:33:54.586Z,24.20
2022-07-29T06:36:22.198Z,24.40
2022-07-29T06:38:52.010Z,24.70
2022-07-29T06:41:19.038Z,24.70
2022-07-29T06:43:51.809Z,24.50
2022-07-29T06:46:22.478Z,24.50
2022-07-29T06:48:49.662Z,24.90
2022-07-29T06:51:22.918Z,24.70
2022-07-29T06:53:59.631Z,24.70
2022-07-29T06:56:39.269Z,24.90
2022-07-29T06:59:10.133Z,25.00
2022-07-29T07:01:41.493Z,25.10
2022-07-29T07:04:09.842Z,24.90
2022-07-29T07:06:37.241Z,25.00
2022-07-29T07:09:04.462Z,25.30
2022-07-29T07:11:31.564Z,25.60
2022-07-29T07:14:03.124Z,25.60
2022-07-29T07:16:31.866Z,25.70
2022-07-29T07:18:58.709Z,25.90
2022-07-29T07:21:25.366Z,25.90
2022-07-29T07:23:52.000Z,26.00
2022-07-29T07:26:18.770Z,26.30
2022-07-29T07:28:45.503Z,26.80
2022-07-29T07:31:12.454Z,26.70
2022-07-29T07:33:39.199Z,26.80
2022-07-29T07:36:06.048Z,26.70
2022-07-29T07:38:32.781Z,26.80
2022-07-29T07:40:59.728Z,27.00
2022-07-29T07:43:26.373Z,27.20
2022-07-29T07:45:53.190Z,27.20
2022-07-29T07:48:19.972Z,27.40
2022-07-29T07:50:47.027Z,27.40
2022-07-29T07:53:13.991Z,27.40
2022-07-29T07:56:07.976Z,27.60
2022-07-29T07:58:28.287Z,27.80
2022-07-29T08:00:54.998Z,27.50
2022-07-29T08:03:21.669Z,27.80
2022-07-29T08:05:49.131Z,27.60
2022-07-29T08:08:15.883Z,27.80
2022-07-29T08:10:54.768Z,28.10
2022-07-29T08:13:22.518Z,28.40
2022-07-29T08:15:58.371Z,28.50
2022-07-29T08:18:25.950Z,28.80
2022-07-29T08:20:52.642Z,28.90
2022-07-29T08:23:22.369Z,28.70
2022-07-29T08:25:50.103Z,28.70
2022-07-29T08:28:18.108Z,29.20
2022-07-29T08:30:45.332Z,29.50
2022-07-29T08:33:13.306Z,30.00
2022-07-29T08:35:40.423Z,30.20
2022-07-29T08:38:07.145Z,30.60
2022-07-29T08:40:33.854Z,30.70
2022-07-29T08:43:06.699Z,30.60
2022-07-29T08:45:50.021Z,30.50
2022-07-29T08:48:18.325Z,30.80
2022-07-29T08:50:46.572Z,30.90
2022-07-29T08:53:17.656Z,31.00
2022-07-29T08:55:45.671Z,30.70
2022-07-29T08:58:12.787Z,30.80
2022-07-29T09:00:53.124Z,31.00
2022-07-29T09:03:23.955Z,31.30
2022-07-29T09:05:51.011Z,31.30
2022-07-29T09:08:18.399Z,31.20
2022-07-29T09:10:45.662Z,31.00
2022-07-29T09:13:12.335Z,31.20
2022-07-29T09:15:39.130Z,31.20
2022-07-29T09:18:05.788Z,31.20
2022-07-29T09:20:51.094Z,31.50
2022-07-29T09:23:23.455Z,31.50
2022-07-29T09:25:51.092Z,31.50
2022-07-29T09:28:18.602Z,31.60
2022-07-29T09:30:55.591Z,31.90
2022-07-29T09:33:23.039Z,32.10
2022-07-29T09:36:01.815Z,32.40
2022-07-29T09:38:29.342Z,32.90
2022-07-29T09:41:05.439Z,33.10
2022-07-29T09:43:33.365Z,33.10
2022-07-29T09:46:12.985Z,33.00
2022-07-29T09:48:40.162Z,33.20
2022-07-29T09:51:20.624Z,33.20
2022-07-29T09:53:49.027Z,33.60
2022-07-29T09:56:15.833Z,33.50
2022-07-29T09:58:42.530Z,33.30
2022-07-29T10:01:09.309Z,33.30
2022-07-29T10:03:51.622Z,33.50
2022-07-29T10:06:18.413Z,33.50
2022-07-29T10:08:45.185Z,33.60
2022-07-29T10:11:12.246Z,33.90
2022-07-29T10:13:39.170Z,33.60
2022-07-29T10:16:06.808Z,34.10
2022-07-29T10:18:34.165Z,33.70
2022-07-29T10:21:02.161Z,33.10
2022-07-29T10:23:46.902Z,32.40
2022-07-29T10:26:16.646Z,32.30
2022-07-29T10:28:43.518Z,31.70
2022-07-29T10:31:14.344Z,31.50
2022-07-29T10:34:03.173Z,33.60
2022-07-29T10:36:32.974Z,33.40
2022-07-29T10:39:06.440Z,31.40
2022-07-29T10:41:52.726Z,31.50
2022-07-29T10:44:23.118Z,30.40
2022-07-29T10:46:51.531Z,30.60
2022-07-29T10:49:18.352Z,30.80
2022-07-29T10:51:57.816Z,30.30
2022-07-29T10:54:34.147Z,31.20
2022-07-29T10:57:14.106Z,31.20
2022-07-29T10:59:42.216Z,31.40
2022-07-29T11:02:41.481Z,32.00
2022-07-29T11:05:10.567Z,32.40
2022-07-29T11:07:45.668Z,32.20
2022-07-29T11:10:16.427Z,32.10
2022-07-29T11:12:43.358Z,31.60
2022-07-29T11:15:36.278Z,31.40
2022-07-29T11:18:05.654Z,31.30
2022-07-29T11:20:43.768Z,31.50
2022-07-29T11:23:34.019Z,31.80
2022-07-29T11:26:10.846Z,31.60
2022-07-29T11:28:59.845Z,32.20
2022-07-29T11:31:46.852Z,32.00
2022-07-29T11:34:28.039Z,32.40
2022-07-29T11:37:14.981Z,32.30
2022-07-29T11:42:34.349Z,32.30
2022-07-29T11:45:43.289Z,32.10
2022-07-29T11:48:29.608Z,32.10
2022-07-29T11:50:48.509Z,31.90
2022-07-29T11:53:16.266Z,32.00
2022-07-29T11:55:51.541Z,32.00
2022-07-29T11:58:25.058Z,31.50
2022-07-29T12:00:53.231Z,31.60
2022-07-29T12:03:32.749Z,31.50
2022-07-29T12:06:02.349Z,31.90
2022-07-29T12:08:29.076Z,32.10
2022-07-29T12:10:55.932Z,32.00
2022-07-29T12:13:23.033Z,32.00
2022-07-29T12:16:04.819Z,32.30
2022-07-29T12:18:32.550Z,32.80
2022-07-29T12:21:05.540Z,33.30
2022-07-29T12:23:35.713Z,33.10
2022-07-29T12:26:11.102Z,33.10
2022-07-29T12:28:52.086Z,33.60
2022-07-29T12:31:43.828Z,34.30
2022-07-29T12:34:08.390Z,34.50
2022-07-29T12:36:37.284Z,34.90
2022-07-29T12:39:04.844Z,34.70
2022-07-29T12:41:31.827Z,35.70
2022-07-29T12:43:59.064Z,36.30
2022-07-29T12:46:25.916Z,36.50
2022-07-29T12:48:57.521Z,36.80
2022-07-29T12:51:33.778Z,36.20
2022-07-29T12:54:18.438Z,35.80
2022-07-29T12:56:45.771Z,35.80
2022-07-29T12:59:23.389Z,35.10
2022-07-29T13:01:51.206Z,34.80
2022-07-29T13:04:31.261Z,34.50
2022-07-29T13:07:06.929Z,34.20
2022-07-29T13:09:41.207Z,34.70
2022-07-29T13:12:12.180Z,35.50
2022-07-29T13:14:40.534Z,35.60
2022-07-29T13:17:08.897Z,35.00
2022-07-29T13:19:41.517Z,34.50
2022-07-29T13:22:09.125Z,34.70
2022-07-29T13:24:46.021Z,34.70
2022-07-29T13:27:12.790Z,35.00
2022-07-29T13:29:41.078Z,34.60
2022-07-29T13:32:08.614Z,34.30
2022-07-29T13:34:35.326Z,34.20
2022-07-29T13:37:02.008Z,33.80
2022-07-29T13:39:28.892Z,34.00
2022-07-29T13:41:56.491Z,33.80
2022-07-29T13:44:24.325Z,33.60
2022-07-29T13:46:51.207Z,33.20
2022-07-29T13:49:18.246Z,33.20
2022-07-29T13:51:45.056Z,33.00
2022-07-29T13:54:11.788Z,32.90
2022-07-29T13:56:38.546Z,32.70
2022-07-29T13:59:05.411Z,32.50
2022-07-29T14:01:32.196Z,32.40
2022-07-29T14:03:59.004Z,32.20
2022-07-29T14:06:25.777Z,32.00
2022-07-29T14:08:52.537Z,31.70
2022-07-29T14:11:19.250Z,31.40
2022-07-29T14:13:45.919Z,31.30
2022-07-29T14:16:12.881Z,31.30
2022-07-29T14:18:39.581Z,31.20
2022-07-29T14:21:07.693Z,31.10
2022-07-29T14:23:34.462Z,31.00
2022-07-29T14:26:01.230Z,30.70
2022-07-29T14:28:29.218Z,30.60
2022-07-29T14:30:58.748Z,29.70
2022-07-29T14:33:25.680Z,31.10
2022-07-29T14:35:52.343Z,30.30
2022-07-29T14:38:19.066Z,29.30
2022-07-29T14:40:47.536Z,28.80
2022-07-29T14:43:17.652Z,28.00
2022-07-29T14:45:44.441Z,27.40
2022-07-29T14:48:12.407Z,26.90
2022-07-29T14:50:39.142Z,26.30
2022-07-29T14:53:05.973Z,26.10
2022-07-29T14:55:32.645Z,26.10
2022-07-29T14:58:08.721Z,25.90
2022-07-29T15:00:38.594Z,26.00
2022-07-29T15:03:05.647Z,25.60
2022-07-29T15:05:32.644Z,25.10
2022-07-29T15:07:59.842Z,25.40
2022-07-29T15:10:29.795Z,25.50
2022-07-29T15:12:59.332Z,25.80
2022-07-29T15:15:26.576Z,26.10
2022-07-29T15:17:53.549Z,26.50
2022-07-29T15:20:20.570Z,26.90
2022-07-29T15:22:47.225Z,27.10
2022-07-29T15:25:13.868Z,27.20
2022-07-29T15:27:40.591Z,27.40
2022-07-29T15:30:11.572Z,27.50
2022-07-29T15:32:58.355Z,27.70
2022-07-29T15:35:25.458Z,27.70
2022-07-29T15:37:52.157Z,27.80
2022-07-29T15:40:18.882Z,28.00
2022-07-29T15:42:45.524Z,27.90
2022-07-29T15:45:12.219Z,27.90
2022-07-29T15:47:38.900Z,28.00
2022-07-29T15:50:07.355Z,28.00
2022-07-29T15:52:34.099Z,27.90
2022-07-29T15:55:00.745Z,27.90
2022-07-29T15:57:27.366Z,27.80
2022-07-29T15:59:54.094Z,27.70
2022-07-29T16:02:20.851Z,27.60
2022-07-29T16:04:47.622Z,27.60
2022-07-29T16:07:14.456Z,27.50
2022-07-29T16:09:41.732Z,27.50
2022-07-29T16:12:14.597Z,27.60
2022-07-29T16:14:45.076Z,27.60
2022-07-29T16:17:14.813Z,27.70
2022-07-29T16:19:45.480Z,27.70
2022-07-29T16:22:12.538Z,27.80
2022-07-29T16:24:39.336Z,27.80
2022-07-29T16:27:06.136Z,27.70
2022-07-29T16:29:32.800Z,27.70
2022-07-29T16:32:00.972Z,27.60
2022-07-29T16:34:27.864Z,27.50
2022-07-29T16:36:54.559Z,27.50
2022-07-29T16:39:21.284Z,27.40
2022-07-29T16:41:48.092Z,27.30
2022-07-29T16:44:15.907Z,27.10
2022-07-29T16:46:45.643Z,27.10
2022-07-29T16:49:12.692Z,27.00
2022-07-29T16:51:45.763Z,26.90
2022-07-29T16:54:12.410Z,26.80
2022-07-29T16:56:39.234Z,26.70
2022-07-29T16:59:05.959Z,26.70
2022-07-29T17:01:32.739Z,26.70
2022-07-29T17:04:08.585Z,26.70
2022-07-29T17:06:35.943Z,26.60
2022-07-29T17:09:04.012Z,26.60
2022-07-29T17:11:53.898Z,26.50
2022-07-29T17:14:18.048Z,26.50
2022-07-29T17:16:58.945Z,26.50
2022-07-29T17:19:30.914Z,26.30
2022-07-29T17:22:06.341Z,26.20
2022-07-29T17:24:37.266Z,25.90
2022-07-29T17:27:05.184Z,25.70
2022-07-29T17:29:31.895Z,25.70
2022-07-29T17:31:59.577Z,25.60
2022-07-29T17:34:27.150Z,25.50
2022-07-29T17:36:54.066Z,25.30
2022-07-29T17:39:20.714Z,25.20
2022-07-29T17:41:48.607Z,25.10
2022-07-29T17:44:15.347Z,25.00
2022-07-29T17:46:42.093Z,24.90
2022-07-29T17:49:09.026Z,24.70
2022-07-29T17:51:35.991Z,24.70
2022-07-29T17:54:02.877Z,24.70
2022-07-29T17:56:29.574Z,24.60
2022-07-29T17:58:57.255Z,24.50
2022-07-29T18:01:24.262Z,24.50
2022-07-29T18:03:51.042Z,24.40
2022-07-29T18:06:18.026Z,24.30
2022-07-29T18:08:47.543Z,24.30
2022-07-29T18:11:15.089Z,24.20
2022-07-29T18:13:41.962Z,24.10
2022-07-29T18:16:11.453Z,24.10
2022-07-29T18:18:38.286Z,24.00
2022-07-29T18:21:04.978Z,23.90
2022-07-29T18:23:31.860Z,23.20
2022-07-29T18:25:58.651Z,22.30
2022-07-29T18:28:26.608Z,22.40
2022-07-29T18:30:53.399Z,22.70
2022-07-29T18:33:22.162Z,22.90
2022-07-29T18:35:50.778Z,23.10
2022-07-29T18:38:23.933Z,23.30
2022-07-29T18:40:50.829Z,24.40
2022-07-29T18:43:17.476Z,25.30
2022-07-29T18:45:44.143Z,22.30
2022-07-29T18:48:13.313Z,21.70
2022-07-29T18:50:41.243Z,20.90
2022-07-29T18:53:07.941Z,20.10
2022-07-29T18:55:36.479Z,20.20
2022-07-29T18:58:05.783Z,20.20
2022-07-29T19:00:32.550Z,19.90
2022-07-29T19:02:59.544Z,20.20
2022-07-29T19:05:26.579Z,20.20
2022-07-29T19:07:54.929Z,20.10
2022-07-29T19:10:21.955Z,20.10
2022-07-29T19:12:49.309Z,20.40
2022-07-29T19:15:19.916Z,20.50
2022-07-29T19:17:48.117Z,21.60
2022-07-29T19:20:15.592Z,20.50
2022-07-29T19:22:42.636Z,20.50
2022-07-29T19:25:10.103Z,20.50
2022-07-29T19:35:20.054Z,20.20
2022-07-29T19:37:58.224Z,20.20
2022-07-29T19:40:30.758Z,20.30
2022-07-29T19:42:58.348Z,20.30
2022-07-29T19:45:26.114Z,20.30
2022-07-29T19:47:57.669Z,20.30
2022-07-29T19:50:30.210Z,20.60
2022-07-29T19:53:02.014Z,20.30
2022-07-29T19:55:28.944Z,20.20
2022-07-29T19:57:56.010Z,20.10
2022-07-29T20:00:23.917Z,19.90
2022-07-29T20:02:51.746Z,19.80
2022-07-29T20:05:18.662Z,19.70
2022-07-29T20:07:46.966Z,19.60
2022-07-29T20:10:13.691Z,19.50
2022-07-29T20:12:42.717Z,19.30
2022-07-29T20:15:16.548Z,19.20
2022-07-29T20:17:43.512Z,19.10
2022-07-29T20:20:10.867Z,19.00
2022-07-29T20:22:37.749Z,18.90
2022-07-29T20:25:05.854Z,18.90
2022-07-29T20:27:32.627Z,18.80
2022-07-29T20:29:59.387Z,18.60
2022-07-29T20:32:26.545Z,18.60
2022-07-29T20:34:53.675Z,18.60
2022-07-29T20:37:20.645Z,18.60
2022-07-29T20:39:47.949Z,18.70
2022-07-29T20:42:15.196Z,18.70
2022-07-29T20:44:41.989Z,18.60
2022-07-29T20:47:09.174Z,18.60
2022-07-29T20:49:36.598Z,18.60
2022-07-29T20:52:03.982Z,18.60
2022-07-29T20:54:30.820Z,18.70
2022-07-29T20:57:00.324Z,18.70
2022-07-29T20:59:27.285Z,18.70
2022-07-29T21:01:55.639Z,18.70
2022-07-29T21:04:22.406Z,18.70
2022-07-29T21:06:57.732Z,18.80
2022-07-29T21:09:24.917Z,18.80
2022-07-29T21:11:51.645Z,18.90
2022-07-29T21:14:47.410Z,18.90
2022-07-29T21:17:14.967Z,18.90
2022-07-29T21:19:41.766Z,18.90
2022-07-29T21:22:08.524Z,19.00
2022-07-29T21:24:35.169Z,18.90
2022-07-29T21:27:33.987Z,19.10
2022-07-29T21:30:00.700Z,19.20
2022-07-29T21:32:29.857Z,19.10
2022-07-29T21:34:57.253Z,19.10
2022-07-29T21:37:23.944Z,19.00
2022-07-29T21:39:50.641Z,19.20
2022-07-29T21:42:17.326Z,19.20
2022-07-29T21:44:44.158Z,19.20
2022-07-29T21:47:11.856Z,19.20
2022-07-29T21:49:38.863Z,19.30
2022-07-29T21:52:05.807Z,19.40
2022-07-29T21:54:34.735Z,19.40
2022-07-29T21:57:01.482Z,19.40
2022-07-29T21:59:28.241Z,19.40
2022-07-29T22:01:55.016Z,19.40
2022-07-29T22:04:21.841Z,19.40
2022-07-29T22:06:48.579Z,19.40
2022-07-29T22:09:15.293Z,19.40
2022-07-29T22:11:42.475Z,19.40
2022-07-29T22:14:09.278Z,19.50
2022-07-29T22:16:36.033Z,19.50
2022-07-29T22:19:03.958Z,19.50
2022-07-29T22:21:30.737Z,19.40
2022-07-29T22:23:57.532Z,19.40
2022-07-29T22:26:24.484Z,19.30
2022-07-29T22:28:51.152Z,19.40
2022-07-29T22:31:17.884Z,19.30
2022-07-29T22:33:44.665Z,19.30
2022-07-29T22:36:11.428Z,19.30
2022-07-29T22:38:38.303Z,19.30
2022-07-29T22:41:05.094Z,19.30
2022-07-29T22:43:31.993Z,19.20
2022-07-29T22:45:58.684Z,19.20
2022-07-29T22:48:25.475Z,19.20
2022-07-29T22:50:52.135Z,19.10
2022-07-29T22:53:18.853Z,19.00
2022-07-29T22:55:45.881Z,19.10
2022-07-29T22:58:12.641Z,19.10
2022-07-29T23:00:39.371Z,19.10
2022-07-29T23:03:06.728Z,19.10
2022-07-29T23:05:33.494Z,19.10
2022-07-29T23:08:00.299Z,19.10
2022-07-29T23:10:27.041Z,19.20
2022-07-29T23:12:53.713Z,19.20
2022-07-29T23:15:20.448Z,19.10
2022-07-29T23:17:47.389Z,19.10
2022-07-29T23:20:15.009Z,19.10
2022-07-29T23:22:42.093Z,19.20
2022-07-29T23:25:09.330Z,19.20
2022-07-29T23:27:36.520Z,19.10
2022-07-29T23:30:03.760Z,19.10
2022-07-29T23:32:30.609Z,19.10
2022-07-29T23:34:57.257Z,19.10
2022-07-29T23:37:23.939Z,19.10
2022-07-29T23:39:53.657Z,19.20
2022-07-29T23:42:20.431Z,19.20
2022-07-29T23:44:47.091Z,19.20
2022-07-29T23:47:13.787Z,19.30
2022-07-29T23:49:40.466Z,19.30
2022-07-29T23:52:07.152Z,19.30
2022-07-29T23:54:33.848Z,19.20
2022-07-29T23:57:01.265Z,19.20
2022-07-29T23:59:28.223Z,19.20
